createdAt,value
2017-10-30T00:00:12.799Z,1003.13
2017-10-30T00:01:12.834Z,1003.12
2017-10-30T00:02:12.834Z,1003.07
2017-10-30T00:03:12.855Z,1003.11
2017-10-30T00:04:12.864Z,1003.14
2017-10-30T00:05:12.882Z,1003.17
2017-10-30T00:06:12.899Z,1003.18
2017-10-30T00:07:12.911Z,1003.23
2017-10-30T00:08:12.930Z,1003.24
2017-10-30T00:09:12.945Z,1003.25
2017-10-30T00:10:12.964Z,1003.24
2017-10-30T00:11:12.978Z,1003.30
2017-10-30T00:12:12.994Z,1003.26
2017-10-30T00:13:13.011Z,1003.29
2017-10-30T00:14:13.027Z,1003.24
2017-10-30T00:15:13.041Z,1003.29
2017-10-30T00:16:13.055Z,1003.38
2017-10-30T00:17:13.072Z,1003.34
2017-10-30T00:18:13.092Z,1003.32
2017-10-30T00:19:13.103Z,1003.33
2017-10-30T00:20:13.121Z,1003.41
2017-10-30T00:21:13.137Z,1003.37
2017-10-30T00:22:13.155Z,1003.44
2017-10-30T00:23:13.169Z,1003.44
2017-10-30T00:24:13.185Z,1003.46
2017-10-30T00:25:13.200Z,1003.49
2017-10-30T00:26:13.220Z,1003.40
2017-10-30T00:27:13.232Z,1003.47
2017-10-30T00:28:13.249Z,1003.48
2017-10-30T00:29:13.266Z,1003.48
2017-10-30T00:30:13.284Z,1003.46
2017-10-30T00:31:13.297Z,1003.48
2017-10-30T00:32:13.317Z,1003.47
2017-10-30T00:33:13.329Z,1003.49
2017-10-30T00:34:13.346Z,1003.47
2017-10-30T00:35:13.366Z,1003.59
2017-10-30T00:36:13.382Z,1003.58
2017-10-30T00:37:13.396Z,1003.57
2017-10-30T00:38:13.409Z,1003.55
2017-10-30T00:39:13.426Z,1003.53
2017-10-30T00:40:13.443Z,1003.59
2017-10-30T00:41:13.460Z,1003.61
2017-10-30T00:42:13.476Z,1003.54
2017-10-30T00:43:13.492Z,1003.58
2017-10-30T00:44:13.507Z,1003.59
2017-10-30T00:45:13.525Z,1003.63
2017-10-30T00:46:13.539Z,1003.70
2017-10-30T00:47:13.554Z,1003.73
2017-10-30T00:48:13.593Z,1003.80
2017-10-30T00:49:13.588Z,1003.74
2017-10-30T00:50:13.612Z,1003.81
2017-10-30T00:51:13.624Z,1003.80
2017-10-30T00:52:13.633Z,1003.75
2017-10-30T00:53:13.654Z,1003.75
2017-10-30T00:54:13.669Z,1003.84
2017-10-30T00:55:13.683Z,1003.82
2017-10-30T00:56:13.699Z,1003.80
2017-10-30T00:57:13.716Z,1003.90
2017-10-30T00:58:13.736Z,1003.79
2017-10-30T00:59:13.749Z,1003.77
2017-10-30T01:00:13.764Z,1003.76
2017-10-30T01:01:13.781Z,1003.84
2017-10-30T01:02:13.808Z,1003.84
2017-10-30T01:03:13.815Z,1003.84
2017-10-30T01:04:13.827Z,1003.79
2017-10-30T01:05:13.846Z,1003.72
2017-10-30T01:06:13.861Z,1003.75
2017-10-30T01:07:13.877Z,1003.77
2017-10-30T01:08:13.894Z,1003.77
2017-10-30T01:09:13.913Z,1003.71
2017-10-30T01:10:13.926Z,1003.75
2017-10-30T01:11:13.945Z,1003.74
2017-10-30T01:12:13.960Z,1003.80
2017-10-30T01:13:13.976Z,1003.78
2017-10-30T01:14:13.993Z,1003.73
2017-10-30T01:15:14.006Z,1003.79
2017-10-30T01:16:14.027Z,1003.76
2017-10-30T01:17:14.040Z,1003.75
2017-10-30T01:18:14.058Z,1003.79
2017-10-30T01:19:14.072Z,1003.77
2017-10-30T01:20:14.091Z,1003.77
2017-10-30T01:21:14.105Z,1003.80
2017-10-30T01:22:14.131Z,1003.74
2017-10-30T01:23:14.138Z,1003.84
2017-10-30T01:24:14.157Z,1003.80
2017-10-30T01:25:14.173Z,1003.81
2017-10-30T01:26:14.186Z,1003.85
2017-10-30T01:27:14.204Z,1003.85
2017-10-30T01:28:14.219Z,1003.81
2017-10-30T01:29:14.237Z,1003.79
2017-10-30T01:30:14.255Z,1003.83
2017-10-30T01:31:14.269Z,1003.76
2017-10-30T01:32:14.285Z,1003.76
2017-10-30T01:33:14.303Z,1003.81
2017-10-30T01:34:14.318Z,1003.83
2017-10-30T01:35:14.339Z,1003.84
2017-10-30T01:36:14.349Z,1003.82
2017-10-30T01:37:14.414Z,1003.85
2017-10-30T01:38:14.436Z,1003.84
2017-10-30T01:39:14.400Z,1003.87
2017-10-30T01:40:14.419Z,1003.90
2017-10-30T01:41:14.434Z,1003.89
2017-10-30T01:42:14.461Z,1003.95
2017-10-30T01:43:14.464Z,1003.89
2017-10-30T01:44:14.480Z,1003.89
2017-10-30T01:45:14.498Z,1003.91
2017-10-30T01:46:14.516Z,1003.87
2017-10-30T01:47:14.531Z,1003.85
2017-10-30T01:48:14.547Z,1003.90
2017-10-30T01:49:14.564Z,1003.89
2017-10-30T01:50:14.582Z,1003.87
2017-10-30T01:51:14.600Z,1003.86
2017-10-30T01:52:14.614Z,1003.87
2017-10-30T01:53:14.632Z,1003.83
2017-10-30T01:54:14.652Z,1003.89
2017-10-30T01:55:14.664Z,1003.73
2017-10-30T01:56:14.681Z,1003.78
2017-10-30T01:57:14.696Z,1003.88
2017-10-30T01:58:14.712Z,1003.80
2017-10-30T01:59:14.730Z,1003.82
2017-10-30T02:00:14.743Z,1003.89
2017-10-30T02:01:14.761Z,1003.85
2017-10-30T02:02:14.776Z,1003.89
2017-10-30T02:03:14.792Z,1003.94
2017-10-30T02:04:14.813Z,1003.97
2017-10-30T02:05:14.828Z,1003.97
2017-10-30T02:06:14.842Z,1003.96
2017-10-30T02:07:14.856Z,1004.01
2017-10-30T02:08:14.875Z,1003.95
2017-10-30T02:09:14.893Z,1003.91
2017-10-30T02:10:14.907Z,1003.85
2017-10-30T02:11:14.930Z,1003.93
2017-10-30T02:12:14.941Z,1003.92
2017-10-30T02:13:14.957Z,1003.97
2017-10-30T02:14:14.973Z,1003.98
2017-10-30T02:15:14.992Z,1003.99
2017-10-30T02:16:15.007Z,1004.00
2017-10-30T02:17:15.021Z,1003.89
2017-10-30T02:18:15.037Z,1003.96
2017-10-30T02:19:15.052Z,1003.92
2017-10-30T02:20:15.071Z,1003.97
2017-10-30T02:21:15.090Z,1003.98
2017-10-30T02:22:15.106Z,1003.98
2017-10-30T02:23:15.120Z,1003.95
2017-10-30T02:24:15.138Z,1003.99
2017-10-30T02:25:15.153Z,1004.07
2017-10-30T02:26:15.169Z,1004.09
2017-10-30T02:27:15.183Z,1004.09
2017-10-30T02:28:15.203Z,1004.14
2017-10-30T02:29:15.218Z,1004.06
2017-10-30T02:30:15.234Z,1004.09
2017-10-30T02:31:15.257Z,1004.14
2017-10-30T02:32:15.269Z,1004.06
2017-10-30T02:33:15.282Z,1004.12
2017-10-30T02:34:15.300Z,1004.16
2017-10-30T02:35:15.315Z,1004.13
2017-10-30T02:36:15.341Z,1004.17
2017-10-30T02:37:15.347Z,1004.18
2017-10-30T02:38:15.367Z,1004.07
2017-10-30T02:39:15.381Z,1004.09
2017-10-30T02:40:15.398Z,1004.05
2017-10-30T02:41:15.414Z,1003.99
2017-10-30T02:42:15.430Z,1004.08
2017-10-30T02:43:15.446Z,1004.05
2017-10-30T02:44:15.461Z,1004.08
2017-10-30T02:45:15.479Z,1004.09
2017-10-30T02:46:15.494Z,1004.18
2017-10-30T02:47:15.510Z,1004.21
2017-10-30T02:48:15.533Z,1004.18
2017-10-30T02:49:15.544Z,1004.18
2017-10-30T02:50:15.560Z,1004.15
2017-10-30T02:51:15.580Z,1004.22
2017-10-30T02:52:15.592Z,1004.17
2017-10-30T02:53:15.607Z,1004.21
2017-10-30T02:54:15.625Z,1004.22
2017-10-30T02:55:15.650Z,1004.26
2017-10-30T02:56:15.724Z,1004.24
2017-10-30T02:57:15.685Z,1004.21
2017-10-30T02:58:15.690Z,1004.17
2017-10-30T02:59:15.704Z,1004.22
2017-10-30T03:00:15.723Z,1004.24
2017-10-30T03:01:15.738Z,1004.23
2017-10-30T03:02:15.752Z,1004.20
2017-10-30T03:03:15.773Z,1004.26
2017-10-30T03:04:15.787Z,1004.25
2017-10-30T03:05:15.802Z,1004.27
2017-10-30T03:06:15.821Z,1004.25
2017-10-30T03:07:15.836Z,1004.33
2017-10-30T03:08:15.854Z,1004.34
2017-10-30T03:09:15.867Z,1004.40
2017-10-30T03:10:15.884Z,1004.38
2017-10-30T03:11:15.899Z,1004.38
2017-10-30T03:12:15.918Z,1004.36
2017-10-30T03:13:15.938Z,1004.38
2017-10-30T03:14:15.955Z,1004.41
2017-10-30T03:15:15.994Z,1004.48
2017-10-30T03:16:15.983Z,1004.44
2017-10-30T03:17:15.998Z,1004.43
2017-10-30T03:18:16.017Z,1004.46
2017-10-30T03:19:16.030Z,1004.51
2017-10-30T03:20:16.063Z,1004.49
2017-10-30T03:21:16.067Z,1004.51
2017-10-30T03:22:16.081Z,1004.55
2017-10-30T03:23:16.096Z,1004.56
2017-10-30T03:24:16.110Z,1004.56
2017-10-30T03:25:16.130Z,1004.57
2017-10-30T03:26:16.144Z,1004.63
2017-10-30T03:27:16.161Z,1004.64
2017-10-30T03:28:16.180Z,1004.61
2017-10-30T03:29:16.192Z,1004.65
2017-10-30T03:30:16.210Z,1004.61
2017-10-30T03:31:16.229Z,1004.64
2017-10-30T03:32:16.241Z,1004.64
2017-10-30T03:33:16.258Z,1004.67
2017-10-30T03:34:16.274Z,1004.64
2017-10-30T03:35:16.306Z,1004.67
2017-10-30T03:36:16.307Z,1004.67
2017-10-30T03:37:16.334Z,1004.73
2017-10-30T03:38:16.375Z,1004.74
2017-10-30T03:39:16.366Z,1004.72
2017-10-30T03:40:16.380Z,1004.70
2017-10-30T03:41:16.391Z,1004.75
2017-10-30T03:42:16.445Z,1004.81
2017-10-30T03:43:16.472Z,1004.85
2017-10-30T03:44:16.446Z,1004.93
2017-10-30T03:45:16.478Z,1004.92
2017-10-30T03:46:16.479Z,1004.91
2017-10-30T03:47:16.512Z,1004.91
2017-10-30T03:48:16.502Z,1004.91
2017-10-30T03:49:16.574Z,1004.91
2017-10-30T03:50:16.555Z,1004.96
2017-10-30T03:51:16.560Z,1004.98
2017-10-30T03:52:16.565Z,1004.99
2017-10-30T03:53:16.580Z,1004.98
2017-10-30T03:54:16.611Z,1004.96
2017-10-30T03:55:16.612Z,1004.97
2017-10-30T03:56:16.634Z,1005.00
2017-10-30T03:57:16.778Z,1004.95
2017-10-30T03:58:16.675Z,1005.00
2017-10-30T03:59:16.677Z,1005.00
2017-10-30T04:00:16.712Z,1004.98
2017-10-30T04:01:16.709Z,1004.96
2017-10-30T04:02:16.724Z,1004.99
2017-10-30T04:03:16.740Z,1004.94
2017-10-30T04:04:16.757Z,1005.00
2017-10-30T04:05:16.774Z,1005.00
2017-10-30T04:06:16.792Z,1004.99
2017-10-30T04:07:16.809Z,1004.97
2017-10-30T04:08:16.825Z,1004.95
2017-10-30T04:09:16.841Z,1004.97
2017-10-30T04:10:16.853Z,1004.93
2017-10-30T04:11:16.871Z,1004.97
2017-10-30T04:12:16.885Z,1005.02
2017-10-30T04:13:16.900Z,1005.01
2017-10-30T04:14:16.921Z,1005.04
2017-10-30T04:15:16.932Z,1005.03
2017-10-30T04:16:16.954Z,1005.08
2017-10-30T04:17:16.964Z,1005.17
2017-10-30T04:18:16.982Z,1005.16
2017-10-30T04:19:16.997Z,1005.12
2017-10-30T04:20:17.017Z,1005.17
2017-10-30T04:21:17.030Z,1005.14
2017-10-30T04:22:17.045Z,1005.13
2017-10-30T04:23:17.059Z,1005.16
2017-10-30T04:24:17.081Z,1005.15
2017-10-30T04:25:17.092Z,1005.14
2017-10-30T04:26:17.109Z,1005.09
2017-10-30T04:27:17.122Z,1005.14
2017-10-30T04:28:17.139Z,1005.11
2017-10-30T04:29:17.154Z,1005.17
2017-10-30T04:30:17.175Z,1005.21
2017-10-30T04:31:17.188Z,1005.23
2017-10-30T04:32:17.203Z,1005.20
2017-10-30T04:33:17.219Z,1005.21
2017-10-30T04:34:17.235Z,1005.25
2017-10-30T04:35:17.249Z,1005.24
2017-10-30T04:36:17.268Z,1005.12
2017-10-30T04:37:17.288Z,1005.14
2017-10-30T04:38:17.296Z,1005.14
2017-10-30T04:39:17.314Z,1005.15
2017-10-30T04:40:17.331Z,1005.14
2017-10-30T04:41:17.346Z,1005.16
2017-10-30T04:42:17.365Z,1005.22
2017-10-30T04:43:17.375Z,1005.14
2017-10-30T04:44:17.394Z,1005.23
2017-10-30T04:45:17.407Z,1005.24
2017-10-30T04:46:17.427Z,1005.28
2017-10-30T04:47:17.452Z,1005.29
2017-10-30T04:48:17.456Z,1005.27
2017-10-30T04:49:17.539Z,1005.32
2017-10-30T04:50:17.650Z,1005.33
2017-10-30T04:51:17.511Z,1005.26
2017-10-30T04:52:17.518Z,1005.33
2017-10-30T04:53:17.538Z,1005.31
2017-10-30T04:54:17.550Z,1005.31
2017-10-30T04:55:17.567Z,1005.30
2017-10-30T04:56:17.582Z,1005.32
2017-10-30T04:57:17.602Z,1005.35
2017-10-30T04:58:17.615Z,1005.38
2017-10-30T04:59:17.627Z,1005.43
2017-10-30T05:00:17.645Z,1005.40
2017-10-30T05:01:17.661Z,1005.39
2017-10-30T05:02:17.675Z,1005.39
2017-10-30T05:03:17.691Z,1005.40
2017-10-30T05:04:17.709Z,1005.41
2017-10-30T05:05:17.726Z,1005.42
2017-10-30T05:06:17.740Z,1005.44
2017-10-30T05:07:17.760Z,1005.47
2017-10-30T05:08:17.768Z,1005.45
2017-10-30T05:09:17.785Z,1005.47
2017-10-30T05:10:17.800Z,1005.48
2017-10-30T05:11:17.816Z,1005.45
2017-10-30T05:12:17.836Z,1005.45
2017-10-30T05:13:17.846Z,1005.47
2017-10-30T05:14:17.865Z,1005.45
2017-10-30T05:15:17.880Z,1005.44
2017-10-30T05:16:17.900Z,1005.45
2017-10-30T05:17:17.912Z,1005.45
2017-10-30T05:18:17.924Z,1005.43
2017-10-30T05:19:17.941Z,1005.45
2017-10-30T05:20:17.960Z,1005.47
2017-10-30T05:21:17.971Z,1005.47
2017-10-30T05:22:17.988Z,1005.51
2017-10-30T05:23:18.002Z,1005.50
2017-10-30T05:24:18.017Z,1005.52
2017-10-30T05:25:18.032Z,1005.58
2017-10-30T05:26:18.050Z,1005.60
2017-10-30T05:27:18.065Z,1005.66
2017-10-30T05:28:18.078Z,1005.59
2017-10-30T05:29:18.097Z,1005.59
2017-10-30T05:30:18.114Z,1005.62
2017-10-30T05:31:18.126Z,1005.62
2017-10-30T05:32:18.143Z,1005.61
2017-10-30T05:33:18.158Z,1005.65
2017-10-30T05:34:18.174Z,1005.67
2017-10-30T05:35:18.187Z,1005.72
2017-10-30T05:36:18.204Z,1005.74
2017-10-30T05:37:18.220Z,1005.72
2017-10-30T05:38:18.236Z,1005.73
2017-10-30T05:39:18.251Z,1005.75
2017-10-30T05:40:18.266Z,1005.80
2017-10-30T05:41:18.282Z,1005.83
2017-10-30T05:42:18.297Z,1005.73
2017-10-30T05:43:18.310Z,1005.74
2017-10-30T05:44:18.327Z,1005.75
2017-10-30T05:45:18.347Z,1005.75
2017-10-30T05:46:19.340Z,1005.76
2017-10-30T05:47:18.374Z,1005.80
2017-10-30T05:48:18.390Z,1005.80
2017-10-30T05:49:18.405Z,1005.88
2017-10-30T05:50:18.423Z,1005.87
2017-10-30T05:51:18.448Z,1005.86
2017-10-30T05:52:18.451Z,1005.86
2017-10-30T05:53:18.468Z,1005.91
2017-10-30T05:54:18.482Z,1005.89
2017-10-30T05:55:18.501Z,1006.02
2017-10-30T05:56:18.516Z,1005.97
2017-10-30T05:57:18.531Z,1005.94
2017-10-30T05:58:18.546Z,1005.94
2017-10-30T05:59:18.561Z,1005.92
2017-10-30T06:00:18.575Z,1005.86
2017-10-30T06:01:18.592Z,1005.90
2017-10-30T06:02:18.604Z,1005.97
2017-10-30T06:03:18.625Z,1006.01
2017-10-30T06:04:18.646Z,1005.96
2017-10-30T06:05:18.654Z,1006.02
2017-10-30T06:06:18.669Z,1006.08
2017-10-30T06:07:18.686Z,1006.07
2017-10-30T06:08:18.703Z,1006.09
2017-10-30T06:09:18.718Z,1006.14
2017-10-30T06:10:18.732Z,1006.14
2017-10-30T06:11:18.747Z,1006.07
2017-10-30T06:12:18.763Z,1006.11
2017-10-30T06:13:18.781Z,1006.07
2017-10-30T06:14:18.794Z,1006.13
2017-10-30T06:15:18.815Z,1006.11
2017-10-30T06:16:18.827Z,1006.15
2017-10-30T06:17:18.843Z,1006.19
2017-10-30T06:18:19.786Z,1006.21
2017-10-30T06:19:18.871Z,1006.28
2017-10-30T06:20:18.892Z,1006.32
2017-10-30T06:21:18.904Z,1006.31
2017-10-30T06:22:18.948Z,1006.37
2017-10-30T06:23:18.989Z,1006.42
2017-10-30T06:24:19.049Z,1006.42
2017-10-30T06:25:18.976Z,1006.46
2017-10-30T06:26:18.983Z,1006.48
2017-10-30T06:27:18.998Z,1006.51
2017-10-30T06:28:19.016Z,1006.55
2017-10-30T06:29:19.042Z,1006.56
2017-10-30T06:30:19.083Z,1006.56
2017-10-30T06:31:19.073Z,1006.59
2017-10-30T06:32:19.079Z,1006.57
2017-10-30T06:33:19.092Z,1006.59
2017-10-30T06:34:19.109Z,1006.62
2017-10-30T06:35:19.126Z,1006.64
2017-10-30T06:36:19.143Z,1006.60
2017-10-30T06:37:19.158Z,1006.59
2017-10-30T06:38:19.173Z,1006.62
2017-10-30T06:39:19.190Z,1006.68
2017-10-30T06:40:19.204Z,1006.64
2017-10-30T06:41:19.278Z,1006.68
2017-10-30T06:42:19.236Z,1006.67
2017-10-30T06:43:19.286Z,1006.71
2017-10-30T06:44:19.282Z,1006.73
2017-10-30T06:45:19.333Z,1006.74
2017-10-30T06:46:19.330Z,1006.80
2017-10-30T06:47:19.344Z,1006.78
2017-10-30T06:48:19.353Z,1006.84
2017-10-30T06:49:19.348Z,1006.87
2017-10-30T06:50:19.365Z,1006.84
2017-10-30T06:51:19.379Z,1006.89
2017-10-30T06:52:19.395Z,1006.96
2017-10-30T06:53:19.487Z,1007.04
2017-10-30T06:54:19.448Z,1007.01
2017-10-30T06:55:19.467Z,1007.05
2017-10-30T06:56:19.480Z,1007.11
2017-10-30T06:57:19.491Z,1007.11
2017-10-30T06:58:19.522Z,1007.08
2017-10-30T06:59:19.505Z,1007.04
2017-10-30T07:00:19.521Z,1007.04
2017-10-30T07:01:19.538Z,1007.03
2017-10-30T07:02:19.554Z,1007.05
2017-10-30T07:03:19.571Z,1007.08
2017-10-30T07:04:19.588Z,1007.09
2017-10-30T07:05:19.607Z,1007.12
2017-10-30T07:06:19.620Z,1007.20
2017-10-30T07:07:19.635Z,1007.19
2017-10-30T07:08:19.651Z,1007.22
2017-10-30T07:09:19.668Z,1007.24
2017-10-30T07:10:19.685Z,1007.32
2017-10-30T07:11:19.700Z,1007.37
2017-10-30T07:12:19.714Z,1007.41
2017-10-30T07:13:19.733Z,1007.49
2017-10-30T07:14:19.749Z,1007.50
2017-10-30T07:15:19.780Z,1007.49
2017-10-30T07:16:19.779Z,1007.43
2017-10-30T07:17:19.797Z,1007.42
2017-10-30T07:18:19.814Z,1007.46
2017-10-30T07:19:19.829Z,1007.45
2017-10-30T07:20:19.872Z,1007.43
2017-10-30T07:21:19.865Z,1007.47
2017-10-30T07:22:19.886Z,1007.44
2017-10-30T07:23:19.895Z,1007.51
2017-10-30T07:24:19.909Z,1007.47
2017-10-30T07:25:19.931Z,1007.49
2017-10-30T07:26:19.944Z,1007.52
2017-10-30T07:27:19.961Z,1007.56
2017-10-30T07:28:19.978Z,1007.58
2017-10-30T07:29:19.994Z,1007.61
2017-10-30T07:30:20.015Z,1007.59
2017-10-30T07:31:20.027Z,1007.67
2017-10-30T07:32:20.043Z,1007.69
2017-10-30T07:33:20.060Z,1007.65
2017-10-30T07:34:20.078Z,1007.63
2017-10-30T07:35:20.092Z,1007.61
2017-10-30T07:36:20.110Z,1007.66
2017-10-30T07:37:20.129Z,1007.65
2017-10-30T07:38:20.144Z,1007.66
2017-10-30T07:39:20.160Z,1007.66
2017-10-30T07:40:20.175Z,1007.72
2017-10-30T07:41:20.190Z,1007.75
2017-10-30T07:42:20.208Z,1007.76
2017-10-30T07:43:20.223Z,1007.78
2017-10-30T07:44:20.243Z,1007.80
2017-10-30T07:45:20.255Z,1007.81
2017-10-30T07:46:20.275Z,1007.81
2017-10-30T07:47:20.289Z,1007.80
2017-10-30T07:48:20.305Z,1007.83
2017-10-30T07:49:20.324Z,1007.86
2017-10-30T07:50:20.341Z,1007.82
2017-10-30T07:51:20.354Z,1007.85
2017-10-30T07:52:20.371Z,1007.88
2017-10-30T07:53:20.387Z,1007.91
2017-10-30T07:54:20.405Z,1007.84
2017-10-30T07:55:20.420Z,1007.85
2017-10-30T07:56:20.436Z,1007.86
2017-10-30T07:57:20.454Z,1007.95
2017-10-30T07:58:20.469Z,1007.94
2017-10-30T07:59:20.594Z,1007.91
2017-10-30T08:00:20.661Z,1007.96
2017-10-30T08:01:20.516Z,1008.14
2017-10-30T08:02:20.535Z,1008.27
2017-10-30T08:03:20.549Z,1008.44
2017-10-30T08:04:20.566Z,1008.50
2017-10-30T08:05:20.585Z,1008.45
2017-10-30T08:06:20.602Z,1008.35
2017-10-30T08:07:20.614Z,1008.26
2017-10-30T08:08:20.634Z,1008.23
2017-10-30T08:09:20.653Z,1008.23
2017-10-30T08:10:20.669Z,1008.26
2017-10-30T08:11:20.683Z,1008.34
2017-10-30T08:12:20.705Z,1008.30
2017-10-30T08:13:20.723Z,1008.23
2017-10-30T08:14:20.742Z,1008.19
2017-10-30T08:15:20.757Z,1008.23
2017-10-30T08:16:20.775Z,1008.25
2017-10-30T08:17:20.791Z,1008.25
2017-10-30T08:18:20.809Z,1008.29
2017-10-30T08:19:20.825Z,1008.38
2017-10-30T08:20:20.844Z,1008.32
2017-10-30T08:21:20.863Z,1008.23
2017-10-30T08:22:20.881Z,1008.18
2017-10-30T08:23:20.903Z,1008.20
2017-10-30T08:24:20.915Z,1008.18
2017-10-30T08:25:20.931Z,1008.12
2017-10-30T08:26:20.949Z,1008.18
2017-10-30T08:27:20.965Z,1008.20
2017-10-30T08:28:20.990Z,1008.29
2017-10-30T08:29:21.002Z,1008.29
2017-10-30T08:30:21.016Z,1008.27
2017-10-30T08:31:21.037Z,1008.29
2017-10-30T08:32:21.072Z,1008.27
2017-10-30T08:33:21.070Z,1008.25
2017-10-30T08:34:21.088Z,1008.24
2017-10-30T08:35:21.106Z,1008.19
2017-10-30T08:36:21.124Z,1008.22
2017-10-30T08:37:21.139Z,1008.25
2017-10-30T08:38:21.160Z,1008.33
2017-10-30T08:39:21.172Z,1008.38
2017-10-30T08:40:21.188Z,1008.37
2017-10-30T08:41:21.208Z,1008.39
2017-10-30T08:42:21.226Z,1008.38
2017-10-30T08:43:21.241Z,1008.42
2017-10-30T08:44:21.256Z,1008.45
2017-10-30T08:45:21.276Z,1008.53
2017-10-30T08:46:21.291Z,1008.51
2017-10-30T08:47:21.308Z,1008.48
2017-10-30T08:48:21.413Z,1008.48
2017-10-30T08:49:21.415Z,1008.53
2017-10-30T08:50:21.406Z,1008.57
2017-10-30T08:51:21.386Z,1008.54
2017-10-30T08:52:21.395Z,1008.54
2017-10-30T08:53:21.410Z,1008.61
2017-10-30T08:54:21.426Z,1008.52
2017-10-30T08:55:21.443Z,1008.57
2017-10-30T08:56:21.462Z,1008.53
2017-10-30T08:57:21.488Z,1008.54
2017-10-30T08:58:21.498Z,1008.60
2017-10-30T08:59:21.511Z,1008.78
2017-10-30T09:00:21.529Z,1008.71
2017-10-30T09:01:21.549Z,1008.76
2017-10-30T09:02:21.565Z,1008.73
2017-10-30T09:03:21.580Z,1008.69
2017-10-30T09:04:21.600Z,1008.77
2017-10-30T09:05:21.615Z,1008.75
2017-10-30T09:06:21.634Z,1008.93
2017-10-30T09:07:21.650Z,1008.97
2017-10-30T09:08:21.668Z,1008.91
2017-10-30T09:09:21.685Z,1008.81
2017-10-30T09:10:21.703Z,1008.80
2017-10-30T09:11:21.720Z,1008.69
2017-10-30T09:12:21.737Z,1008.76
2017-10-30T09:13:21.757Z,1008.74
2017-10-30T09:14:21.770Z,1008.78
2017-10-30T09:15:21.790Z,1008.81
2017-10-30T09:16:21.807Z,1008.80
2017-10-30T09:17:21.821Z,1008.83
2017-10-30T09:18:21.843Z,1008.83
2017-10-30T09:19:21.858Z,1008.78
2017-10-30T09:20:21.875Z,1008.75
2017-10-30T09:21:21.897Z,1008.83
2017-10-30T09:22:21.914Z,1008.88
2017-10-30T09:23:21.932Z,1008.82
2017-10-30T09:24:21.945Z,1008.89
2017-10-30T09:25:21.962Z,1008.85
2017-10-30T09:26:21.979Z,1008.76
2017-10-30T09:27:21.995Z,1008.85
2017-10-30T09:28:22.013Z,1008.82
2017-10-30T09:29:22.030Z,1008.83
2017-10-30T09:30:22.048Z,1008.87
2017-10-30T09:31:22.066Z,1008.84
2017-10-30T09:32:22.083Z,1008.86
2017-10-30T09:33:22.102Z,1008.91
2017-10-30T09:34:22.118Z,1008.86
2017-10-30T09:35:22.136Z,1008.90
2017-10-30T09:36:22.155Z,1008.84
2017-10-30T09:37:22.170Z,1008.89
2017-10-30T09:38:22.231Z,1008.91
2017-10-30T09:39:22.204Z,1009.02
2017-10-30T09:40:22.225Z,1009.03
2017-10-30T09:41:22.239Z,1008.95
2017-10-30T09:42:22.261Z,1009.03
2017-10-30T09:43:22.278Z,1009.02
2017-10-30T09:44:22.299Z,1009.03
2017-10-30T09:45:22.310Z,1008.98
2017-10-30T09:46:22.330Z,1009.01
2017-10-30T09:47:22.347Z,1009.01
2017-10-30T09:48:22.366Z,1009.00
2017-10-30T09:49:22.382Z,1008.91
2017-10-30T09:50:22.405Z,1008.92
2017-10-30T09:51:22.426Z,1008.93
2017-10-30T09:52:22.436Z,1008.99
2017-10-30T09:53:22.455Z,1009.16
2017-10-30T09:54:22.475Z,1009.33
2017-10-30T09:55:22.493Z,1009.19
2017-10-30T09:56:22.505Z,1009.20
2017-10-30T09:57:22.527Z,1009.34
2017-10-30T09:58:22.544Z,1009.29
2017-10-30T09:59:22.558Z,1009.30
2017-10-30T10:00:22.581Z,1009.36
2017-10-30T10:01:22.598Z,1009.39
2017-10-30T10:02:22.619Z,1009.43
2017-10-30T10:03:22.633Z,1009.36
2017-10-30T10:04:22.651Z,1009.32
2017-10-30T10:05:22.669Z,1009.25
2017-10-30T10:06:22.687Z,1009.15
2017-10-30T10:07:22.704Z,1009.18
2017-10-30T10:08:22.723Z,1009.14
2017-10-30T10:09:22.741Z,1009.18
2017-10-30T10:10:22.767Z,1009.26
2017-10-30T10:11:22.775Z,1009.27
2017-10-30T10:12:22.796Z,1009.27
2017-10-30T10:13:22.959Z,1009.25
2017-10-30T10:14:22.835Z,1009.32
2017-10-30T10:15:22.850Z,1009.38
2017-10-30T10:16:22.869Z,1009.16
2017-10-30T10:17:22.887Z,1009.21
2017-10-30T10:18:22.905Z,1009.19
2017-10-30T10:19:22.923Z,1009.21
2017-10-30T10:20:22.942Z,1009.21
2017-10-30T10:21:22.959Z,1009.19
2017-10-30T10:22:22.979Z,1009.16
2017-10-30T10:23:22.998Z,1009.16
2017-10-30T10:24:23.017Z,1009.16
2017-10-30T10:25:23.034Z,1008.99
2017-10-30T10:26:23.051Z,1009.07
2017-10-30T10:27:23.075Z,1009.16
2017-10-30T10:28:23.090Z,1009.04
2017-10-30T10:29:23.113Z,1009.07
2017-10-30T10:30:23.132Z,1009.20
2017-10-30T10:31:23.147Z,1009.09
2017-10-30T10:32:23.162Z,1009.11
2017-10-30T10:33:23.183Z,1009.15
2017-10-30T10:34:23.203Z,1009.18
2017-10-30T10:35:23.219Z,1009.23
2017-10-30T10:36:23.246Z,1009.29
2017-10-30T10:37:23.257Z,1009.19
2017-10-30T10:38:23.274Z,1009.23
2017-10-30T10:39:23.295Z,1009.26
2017-10-30T10:40:23.311Z,1009.24
2017-10-30T10:41:23.333Z,1009.26
2017-10-30T10:42:23.349Z,1009.34
2017-10-30T10:43:23.367Z,1009.27
2017-10-30T10:44:23.384Z,1009.18
2017-10-30T10:45:23.409Z,1009.19
2017-10-30T10:46:23.425Z,1009.21
2017-10-30T10:47:23.443Z,1009.12
2017-10-30T10:48:23.461Z,1009.22
2017-10-30T10:49:23.479Z,1009.12
2017-10-30T10:50:23.499Z,1009.29
2017-10-30T10:51:23.517Z,1009.18
2017-10-30T10:52:23.537Z,1009.13
2017-10-30T10:53:23.553Z,1009.18
2017-10-30T10:54:23.589Z,1009.02
2017-10-30T10:55:23.591Z,1009.10
2017-10-30T10:56:23.609Z,1009.07
2017-10-30T10:57:23.628Z,1009.19
2017-10-30T10:58:23.658Z,1009.21
2017-10-30T10:59:23.667Z,1009.22
2017-10-30T11:00:23.683Z,1009.31
2017-10-30T11:01:23.704Z,1009.38
2017-10-30T11:02:23.733Z,1009.35
2017-10-30T11:03:23.743Z,1009.32
2017-10-30T11:04:23.758Z,1009.33
2017-10-30T11:05:23.782Z,1009.36
2017-10-30T11:06:23.799Z,1009.35
2017-10-30T11:07:23.817Z,1009.26
2017-10-30T11:08:23.835Z,1009.33
2017-10-30T11:09:23.856Z,1009.50
2017-10-30T11:10:23.873Z,1009.34
2017-10-30T11:11:23.893Z,1009.36
2017-10-30T11:12:23.913Z,1009.38
2017-10-30T11:13:23.934Z,1009.35
2017-10-30T11:14:23.951Z,1009.36
2017-10-30T11:15:23.970Z,1009.38
2017-10-30T11:16:23.986Z,1009.34
2017-10-30T11:17:24.008Z,1009.24
2017-10-30T11:18:24.028Z,1009.28
2017-10-30T11:19:24.047Z,1009.18
2017-10-30T11:20:24.066Z,1009.28
2017-10-30T11:21:24.084Z,1009.23
2017-10-30T11:22:24.106Z,1009.20
2017-10-30T11:23:24.123Z,1009.15
2017-10-30T11:24:24.142Z,1009.08
2017-10-30T11:25:24.162Z,1009.03
2017-10-30T11:26:24.180Z,1009.00
2017-10-30T11:27:24.198Z,1008.97
2017-10-30T11:28:24.218Z,1009.06
2017-10-30T11:29:24.240Z,1009.05
2017-10-30T11:30:24.258Z,1009.07
2017-10-30T11:31:24.273Z,1009.07
2017-10-30T11:32:24.296Z,1008.98
2017-10-30T11:33:24.313Z,1009.02
2017-10-30T11:34:24.333Z,1009.01
2017-10-30T11:35:24.360Z,1009.18
2017-10-30T11:36:24.390Z,1009.12
2017-10-30T11:37:24.389Z,1009.19
2017-10-30T11:38:24.406Z,1009.09
2017-10-30T11:39:24.422Z,1009.12
2017-10-30T11:40:24.444Z,1009.03
2017-10-30T11:41:24.461Z,1009.08
2017-10-30T11:42:24.482Z,1008.93
2017-10-30T11:43:24.496Z,1008.98
2017-10-30T11:44:24.519Z,1009.03
2017-10-30T11:45:24.538Z,1009.10
2017-10-30T11:46:24.555Z,1009.02
2017-10-30T11:47:24.573Z,1009.06
2017-10-30T11:48:24.590Z,1009.05
2017-10-30T11:49:24.612Z,1009.05
2017-10-30T11:50:24.629Z,1009.07
2017-10-30T11:51:24.644Z,1009.12
2017-10-30T11:52:24.665Z,1009.14
2017-10-30T11:53:24.684Z,1009.05
2017-10-30T11:54:24.707Z,1009.10
2017-10-30T11:55:24.719Z,1009.05
2017-10-30T11:56:24.738Z,1009.04
2017-10-30T11:57:24.767Z,1009.06
2017-10-30T11:58:24.778Z,1009.04
2017-10-30T11:59:24.794Z,1009.04
2017-10-30T12:00:24.813Z,1008.99
2017-10-30T12:01:24.832Z,1009.07
2017-10-30T12:02:24.851Z,1009.10
2017-10-30T12:03:24.869Z,1009.09
2017-10-30T12:04:24.888Z,1009.10
2017-10-30T12:05:24.907Z,1009.14